createdAt,value
2023-04-16T00:00:29.520Z,8.50
2023-04-16T00:02:56.636Z,8.38
2023-04-16T00:05:23.716Z,7.90
2023-04-16T00:07:51.607Z,8.25
2023-04-16T00:10:18.733Z,8.07
2023-04-16T00:12:45.894Z,8.85
2023-04-16T00:15:12.816Z,8.15
2023-04-16T00:17:39.874Z,8.15
2023-04-16T00:20:08.947Z,9.10
2023-04-16T00:22:35.914Z,8.32
2023-04-16T00:25:03.157Z,8.35
2023-04-16T00:27:30.160Z,8.27
2023-04-16T00:29:57.134Z,9.00
2023-04-16T00:32:24.179Z,8.27
2023-04-16T00:34:51.161Z,8.35
2023-04-16T00:37:18.076Z,8.48
2023-04-16T00:39:44.987Z,8.35
2023-04-16T00:42:11.974Z,9.00
2023-04-16T00:44:38.845Z,9.15
2023-04-16T00:47:07.672Z,8.63
2023-04-16T00:49:36.334Z,8.63
2023-04-16T00:52:03.456Z,9.68
2023-04-16T00:54:32.200Z,10.10
2023-04-16T00:57:00.077Z,9.77
2023-04-16T00:59:27.613Z,10.30
2023-04-16T01:01:54.583Z,10.20
2023-04-16T01:04:21.953Z,9.70
2023-04-16T01:06:49.052Z,10.02
2023-04-16T01:09:16.898Z,10.45
2023-04-16T01:11:43.797Z,10.40
2023-04-16T01:14:10.731Z,9.52
2023-04-16T01:16:37.684Z,9.23
2023-04-16T01:19:04.645Z,10.02
2023-04-16T01:21:31.533Z,10.90
2023-04-16T01:24:02.035Z,11.32
2023-04-16T01:26:28.954Z,10.30
2023-04-16T01:28:56.270Z,10.90
2023-04-16T01:31:23.223Z,11.40
2023-04-16T01:33:50.280Z,11.65
2023-04-16T01:36:17.472Z,11.25
2023-04-16T01:38:44.366Z,11.70
2023-04-16T01:41:11.292Z,11.75
2023-04-16T01:43:40.197Z,11.52
2023-04-16T01:46:21.175Z,11.57
2023-04-16T01:48:48.450Z,12.00
2023-04-16T01:51:15.404Z,11.77
2023-04-16T01:53:42.289Z,11.25
2023-04-16T01:56:09.197Z,11.55
2023-04-16T01:58:36.110Z,11.85
2023-04-16T02:01:03.752Z,12.30
2023-04-16T02:03:31.627Z,11.15
2023-04-16T02:05:58.674Z,12.13
2023-04-16T02:08:25.613Z,12.07
2023-04-16T02:10:53.058Z,12.10
2023-04-16T02:13:20.033Z,11.60
2023-04-16T02:15:48.909Z,11.50
2023-04-16T02:18:16.319Z,11.50
2023-04-16T02:20:45.760Z,11.40
2023-04-16T02:23:15.078Z,11.15
2023-04-16T02:25:44.462Z,12.05
2023-04-16T02:28:13.769Z,11.05
2023-04-16T02:30:41.948Z,11.75
2023-04-16T02:33:11.677Z,11.55
2023-04-16T02:35:40.469Z,11.27
2023-04-16T02:38:08.608Z,10.93
2023-04-16T02:40:35.866Z,11.02
2023-04-16T02:43:03.246Z,11.20
2023-04-16T02:45:31.638Z,10.77
2023-04-16T02:47:59.715Z,11.35
2023-04-16T02:50:29.789Z,11.65
2023-04-16T02:52:56.869Z,11.20
2023-04-16T02:55:23.858Z,10.95
2023-04-16T02:57:51.971Z,10.80
2023-04-16T03:00:22.508Z,12.00
2023-04-16T03:02:49.500Z,11.50
2023-04-16T03:05:16.549Z,12.00
2023-04-16T03:07:43.668Z,11.90
2023-04-16T03:10:11.937Z,11.27
2023-04-16T03:12:39.229Z,11.27
2023-04-16T03:15:06.799Z,11.98
2023-04-16T03:17:33.795Z,11.80
2023-04-16T03:20:00.979Z,11.88
2023-04-16T03:22:27.850Z,12.20
2023-04-16T03:24:54.956Z,12.55
2023-04-16T03:27:21.788Z,11.90
2023-04-16T03:29:48.699Z,12.25
2023-04-16T03:32:15.655Z,12.55
2023-04-16T03:34:42.629Z,12.98
2023-04-16T03:37:12.069Z,12.80
2023-04-16T03:39:39.456Z,13.05
2023-04-16T03:42:06.563Z,12.43
2023-04-16T03:44:33.851Z,12.48
2023-04-16T03:47:00.886Z,12.25
2023-04-16T03:49:27.839Z,12.38
2023-04-16T03:51:55.158Z,12.73
2023-04-16T03:54:22.850Z,12.57
2023-04-16T03:56:50.049Z,12.38
2023-04-16T03:59:16.923Z,12.27
2023-04-16T04:01:43.998Z,12.80
2023-04-16T04:04:11.200Z,12.25
2023-04-16T04:06:38.262Z,12.93
2023-04-16T04:09:05.653Z,12.50
2023-04-16T04:11:32.646Z,11.80
2023-04-16T04:13:59.646Z,12.55
2023-04-16T04:16:26.623Z,12.05
2023-04-16T04:18:53.543Z,11.57
2023-04-16T04:21:20.489Z,11.80
2023-04-16T04:23:47.418Z,11.73
2023-04-16T04:26:14.319Z,11.65
2023-04-16T04:28:41.377Z,11.52
2023-04-16T04:31:08.296Z,11.23
2023-04-16T04:33:35.463Z,11.13
2023-04-16T04:36:02.470Z,11.18
2023-04-16T04:38:30.437Z,10.93
2023-04-16T04:40:57.651Z,11.35
2023-04-16T04:43:24.811Z,10.68
2023-04-16T04:45:51.751Z,11.15
2023-04-16T04:48:18.699Z,11.40
2023-04-16T04:50:46.474Z,11.15
2023-04-16T04:53:15.020Z,10.85
2023-04-16T04:55:42.076Z,10.82
2023-04-16T04:58:11.996Z,11.25
2023-04-16T05:00:39.008Z,11.55
2023-04-16T05:03:10.889Z,11.13
2023-04-16T05:05:40.062Z,11.57
2023-04-16T05:08:07.619Z,11.75
2023-04-16T05:10:34.517Z,11.30
2023-04-16T05:13:01.769Z,11.18
2023-04-16T05:15:28.787Z,10.73
2023-04-16T05:17:58.524Z,10.80
2023-04-16T05:20:25.478Z,11.40
2023-04-16T05:22:52.449Z,11.35
2023-04-16T05:25:19.366Z,11.05
2023-04-16T05:27:46.326Z,12.45
2023-04-16T05:30:13.280Z,11.85
2023-04-16T05:32:41.409Z,12.00
2023-04-16T05:35:09.937Z,11.52
2023-04-16T05:37:36.931Z,11.77
2023-04-16T05:40:04.190Z,12.60
2023-04-16T05:42:31.160Z,11.95
2023-04-16T05:44:58.156Z,11.23
2023-04-16T05:47:25.506Z,11.48
2023-04-16T05:49:52.429Z,11.32
2023-04-16T05:52:19.303Z,11.57
2023-04-16T05:54:46.198Z,11.98
2023-04-16T05:57:14.470Z,11.68
2023-04-16T05:59:42.519Z,11.75
2023-04-16T06:02:09.644Z,11.88
2023-04-16T06:04:37.256Z,11.52
2023-04-16T06:07:04.201Z,11.55
2023-04-16T06:09:31.282Z,11.75
2023-04-16T06:11:58.250Z,11.85
2023-04-16T06:14:25.279Z,11.13
2023-04-16T06:16:52.135Z,10.75
2023-04-16T06:19:19.028Z,11.43
2023-04-16T06:21:46.242Z,10.45
2023-04-16T06:24:13.358Z,10.65
2023-04-16T06:26:40.374Z,11.25
2023-04-16T06:29:07.509Z,11.60
2023-04-16T06:31:34.815Z,11.18
2023-04-16T06:34:01.846Z,11.27
2023-04-16T06:36:29.221Z,11.57
2023-04-16T06:38:56.109Z,11.35
2023-04-16T06:41:25.494Z,11.48
2023-04-16T06:43:52.598Z,11.40
2023-04-16T06:46:19.654Z,11.55
2023-04-16T06:48:46.843Z,11.10
2023-04-16T06:51:13.776Z,11.70
2023-04-16T06:53:40.987Z,11.43
2023-04-16T06:56:08.436Z,11.35
2023-04-16T06:58:35.458Z,10.77
2023-04-16T07:01:02.782Z,11.10
2023-04-16T07:03:29.825Z,10.52
2023-04-16T07:05:57.070Z,10.15
2023-04-16T07:08:24.698Z,10.30
2023-04-16T07:10:53.805Z,10.52
2023-04-16T07:13:21.616Z,9.50
2023-04-16T07:15:48.612Z,10.52
2023-04-16T07:18:15.844Z,10.18
2023-04-16T07:20:42.873Z,9.80
2023-04-16T07:23:09.815Z,10.30
2023-04-16T07:25:36.829Z,9.90
2023-04-16T07:28:04.060Z,10.45
2023-04-16T07:30:34.263Z,10.13
2023-04-16T07:33:03.655Z,10.18
2023-04-16T07:35:32.056Z,10.13
2023-04-16T07:37:59.016Z,9.52
2023-04-16T07:40:26.344Z,10.00
2023-04-16T07:42:53.330Z,9.95
2023-04-16T07:45:20.303Z,9.57
2023-04-16T07:47:47.701Z,9.43
2023-04-16T07:50:14.743Z,8.52
2023-04-16T07:52:43.723Z,8.73
2023-04-16T07:55:10.876Z,9.45
2023-04-16T07:57:38.181Z,9.35
2023-04-16T08:00:06.114Z,9.60
2023-04-16T08:02:33.640Z,9.55
2023-04-16T08:05:00.825Z,9.32
2023-04-16T08:07:27.816Z,8.20
2023-04-16T08:09:55.186Z,9.00
2023-04-16T08:12:22.423Z,8.77
2023-04-16T08:14:49.713Z,8.95
2023-04-16T08:17:16.879Z,9.57
2023-04-16T08:19:47.700Z,9.65
2023-04-16T08:22:14.940Z,8.45
2023-04-16T08:24:41.988Z,8.68
2023-04-16T08:27:18.637Z,8.55
2023-04-16T08:29:47.713Z,8.45
2023-04-16T08:32:14.633Z,8.60
2023-04-16T08:34:42.527Z,8.52
2023-04-16T08:37:09.945Z,9.02
2023-04-16T08:39:37.723Z,10.15
2023-04-16T08:42:11.714Z,10.15
2023-04-16T08:44:49.597Z,9.38
2023-04-16T08:47:17.580Z,15.50
2023-04-16T08:49:46.241Z,10.00
2023-04-16T08:52:22.266Z,10.35
2023-04-16T08:55:14.173Z,9.85
2023-04-16T08:57:58.694Z,8.77
2023-04-16T09:00:26.577Z,8.10
2023-04-16T09:02:54.292Z,7.90
2023-04-16T09:05:25.592Z,9.05
2023-04-16T09:07:54.634Z,8.43
2023-04-16T09:10:22.160Z,12.20
2023-04-16T09:12:49.073Z,35.25
2023-04-16T09:15:16.055Z,12.80
2023-04-16T09:17:43.065Z,9.98
2023-04-16T09:20:11.131Z,7.25
2023-04-16T09:22:40.269Z,5.95
2023-04-16T09:25:08.670Z,6.35
2023-04-16T09:27:37.192Z,6.38
2023-04-16T09:30:22.953Z,5.75
2023-04-16T09:32:51.757Z,7.68
2023-04-16T09:35:20.417Z,7.65
2023-04-16T09:38:00.859Z,5.82
2023-04-16T09:40:30.554Z,5.00
2023-04-16T09:42:58.838Z,5.22
2023-04-16T09:45:26.251Z,4.80
2023-04-16T09:47:53.241Z,5.10
2023-04-16T09:50:21.089Z,6.70
2023-04-16T09:52:51.660Z,5.93
2023-04-16T09:55:27.402Z,6.35
2023-04-16T09:58:01.072Z,6.20
2023-04-16T10:00:30.698Z,7.22
2023-04-16T10:03:05.816Z,7.25
2023-04-16T10:05:33.043Z,6.45
2023-04-16T10:08:03.320Z,6.80
2023-04-16T10:10:30.808Z,7.70
2023-04-16T10:12:58.430Z,6.63
2023-04-16T10:15:28.039Z,6.88
2023-04-16T10:17:57.064Z,6.45
2023-04-16T10:20:25.274Z,7.43
2023-04-16T10:22:54.336Z,7.25
2023-04-16T10:25:22.943Z,6.50
2023-04-16T10:27:51.134Z,6.35
2023-04-16T10:30:19.471Z,6.88
2023-04-16T10:32:47.071Z,10.90
2023-04-16T10:35:21.337Z,6.97
2023-04-16T10:37:48.339Z,6.43
2023-04-16T10:40:27.548Z,6.57
2023-04-16T10:43:03.656Z,6.93
2023-04-16T10:45:32.864Z,7.30
2023-04-16T10:48:04.342Z,9.48
2023-04-16T10:50:38.495Z,7.50
2023-04-16T10:53:19.249Z,7.25
2023-04-16T10:56:05.582Z,7.85
2023-04-16T10:58:36.296Z,25.98
2023-04-16T11:01:16.821Z,15.38
2023-04-16T11:03:47.314Z,8.05
2023-04-16T11:06:26.188Z,9.77
2023-04-16T11:08:55.282Z,6.68
2023-04-16T11:11:23.236Z,7.20
2023-04-16T11:13:54.648Z,6.72
2023-04-16T11:16:21.624Z,6.40
2023-04-16T11:18:50.872Z,7.50
2023-04-16T11:21:19.781Z,7.00
2023-04-16T11:23:49.927Z,7.13
2023-04-16T11:26:28.935Z,6.25
2023-04-16T11:28:57.132Z,8.40
2023-04-16T11:31:24.904Z,7.18
2023-04-16T11:33:51.968Z,7.05
2023-04-16T11:36:18.973Z,5.78
2023-04-16T11:38:47.068Z,7.45
2023-04-16T11:41:21.808Z,6.68
2023-04-16T11:43:48.832Z,5.90
2023-04-16T11:46:26.899Z,5.63
2023-04-16T11:48:56.203Z,9.13
2023-04-16T11:51:23.859Z,6.07
2023-04-16T11:53:54.960Z,6.20
2023-04-16T11:56:34.487Z,5.47
2023-04-16T11:59:11.160Z,4.18
2023-04-16T12:01:41.301Z,7.88
2023-04-16T12:04:09.191Z,5.60
2023-04-16T12:06:36.568Z,6.47
2023-04-16T12:09:27.133Z,8.10
2023-04-16T12:11:54.258Z,10.25
2023-04-16T12:14:23.799Z,12.30
2023-04-16T12:16:50.896Z,12.15
2023-04-16T12:19:18.906Z,10.13
2023-04-16T12:21:50.766Z,17.00
2023-04-16T12:24:24.174Z,12.27
2023-04-16T12:27:03.244Z,11.95
2023-04-16T12:29:30.311Z,12.65
2023-04-16T12:31:57.884Z,12.45
2023-04-16T12:34:30.662Z,13.60
2023-04-16T12:37:12.322Z,13.43
2023-04-16T12:39:39.275Z,14.98
2023-04-16T12:42:09.866Z,23.05
2023-04-16T12:44:36.850Z,25.80
2023-04-16T12:47:05.616Z,11.15
2023-04-16T12:49:32.770Z,9.70
2023-04-16T12:52:04.559Z,7.60
2023-04-16T12:54:48.577Z,6.47
2023-04-16T12:57:16.647Z,6.93
2023-04-16T12:59:43.605Z,6.63
2023-04-16T13:02:10.638Z,9.52
2023-04-16T13:04:37.798Z,7.50
2023-04-16T13:07:04.860Z,7.32
2023-04-16T13:09:31.725Z,6.70
2023-04-16T13:12:02.356Z,14.25
2023-04-16T13:14:29.277Z,11.00
2023-04-16T13:16:56.190Z,7.85
2023-04-16T13:19:23.141Z,6.72
2023-04-16T13:21:50.670Z,7.25
2023-04-16T13:24:17.697Z,7.05
2023-04-16T13:26:44.785Z,11.48
2023-04-16T13:29:11.976Z,7.63
2023-04-16T13:31:39.245Z,7.78
2023-04-16T13:34:06.308Z,8.93
2023-04-16T13:36:34.034Z,10.02
2023-04-16T13:39:01.082Z,8.80
2023-04-16T13:41:27.994Z,10.05
2023-04-16T13:43:55.005Z,10.57
2023-04-16T13:46:22.136Z,8.43
2023-04-16T13:48:49.163Z,8.55
2023-04-16T13:51:16.092Z,19.80
2023-04-16T13:53:42.999Z,21.33
2023-04-16T13:56:11.148Z,18.92
2023-04-16T13:58:38.888Z,10.38
2023-04-16T14:01:05.939Z,13.70
2023-04-16T14:03:36.024Z,10.05
2023-04-16T14:06:04.023Z,8.20
2023-04-16T14:08:31.394Z,7.82
2023-04-16T14:10:58.859Z,9.98
2023-04-16T14:13:26.166Z,9.90
2023-04-16T14:15:56.604Z,9.30
2023-04-16T14:18:23.551Z,10.77
2023-04-16T14:20:50.691Z,11.10
2023-04-16T14:23:17.964Z,9.18
2023-04-16T14:25:44.946Z,7.82
2023-04-16T14:28:13.050Z,8.20
2023-04-16T14:30:41.976Z,17.08
2023-04-16T14:33:08.863Z,12.40
2023-04-16T14:35:36.076Z,9.90
2023-04-16T14:38:03.157Z,7.95
2023-04-16T14:40:30.187Z,11.10
2023-04-16T14:42:57.122Z,12.65
2023-04-16T14:45:28.998Z,7.30
2023-04-16T14:47:56.024Z,7.05
2023-04-16T14:50:23.331Z,7.00
2023-04-16T14:52:53.246Z,8.52
2023-04-16T14:55:20.949Z,10.20
2023-04-16T14:57:47.843Z,8.48
2023-04-16T15:00:17.593Z,8.85
2023-04-16T15:02:46.165Z,8.98
2023-04-16T15:05:13.229Z,6.88
2023-04-16T15:07:40.398Z,6.68
2023-04-16T15:10:09.643Z,6.20
2023-04-16T15:12:37.880Z,5.22
2023-04-16T15:15:09.541Z,6.90
2023-04-16T15:17:36.659Z,5.93
2023-04-16T15:20:08.152Z,5.53
2023-04-16T15:22:35.376Z,5.88
2023-04-16T15:25:02.585Z,5.65
2023-04-16T15:27:29.480Z,5.68
2023-04-16T15:29:56.735Z,9.85
2023-04-16T15:32:23.740Z,7.43
2023-04-16T15:34:50.723Z,12.88
2023-04-16T15:37:17.650Z,6.00
2023-04-16T15:39:44.630Z,5.95
2023-04-16T15:42:11.916Z,6.75
2023-04-16T15:44:38.880Z,6.18
2023-04-16T15:47:07.881Z,5.93
2023-04-16T15:49:35.560Z,8.18
2023-04-16T15:52:02.884Z,7.85
2023-04-16T15:54:30.909Z,7.70
2023-04-16T15:56:58.918Z,7.15
2023-04-16T15:59:28.745Z,7.05
2023-04-16T16:01:55.818Z,7.28
2023-04-16T16:04:23.408Z,7.75
2023-04-16T16:06:51.134Z,7.78
2023-04-16T16:09:25.393Z,8.50
2023-04-16T16:11:56.938Z,7.90
2023-04-16T16:14:23.866Z,7.78
2023-04-16T16:16:51.290Z,8.82
2023-04-16T16:19:18.209Z,10.25
2023-04-16T16:21:45.284Z,9.15
2023-04-16T16:24:12.354Z,10.45
2023-04-16T16:26:40.076Z,12.65
2023-04-16T16:29:07.293Z,12.05
2023-04-16T16:31:34.605Z,12.32
2023-04-16T16:34:01.687Z,12.80
2023-04-16T16:36:30.175Z,11.98
2023-04-16T16:38:57.361Z,10.02
2023-04-16T16:41:24.502Z,11.18
2023-04-16T16:43:55.753Z,10.43
2023-04-16T16:46:23.064Z,11.40
2023-04-16T16:48:50.029Z,12.65
2023-04-16T16:51:18.906Z,13.68
2023-04-16T16:53:47.493Z,11.15
2023-04-16T16:56:14.465Z,14.38
2023-04-16T16:58:41.809Z,17.63
2023-04-16T17:01:08.906Z,14.95
2023-04-16T17:03:35.964Z,13.43
2023-04-16T17:06:03.174Z,12.23
2023-04-16T17:08:30.160Z,10.60
2023-04-16T17:10:57.112Z,13.65
2023-04-16T17:13:25.262Z,20.98
2023-04-16T17:15:52.168Z,13.55
2023-04-16T17:18:19.044Z,16.83
2023-04-16T17:20:45.951Z,14.60
2023-04-16T17:23:12.999Z,14.15
2023-04-16T17:25:39.992Z,15.77
2023-04-16T17:28:07.050Z,17.33
2023-04-16T17:30:34.317Z,15.85
2023-04-16T17:33:03.608Z,15.00
2023-04-16T17:35:31.297Z,14.18
2023-04-16T17:37:58.353Z,14.68
2023-04-16T17:40:25.548Z,17.08
2023-04-16T17:42:52.516Z,18.83
2023-04-16T17:45:22.275Z,20.60
2023-04-16T17:47:49.208Z,26.75
2023-04-16T17:50:16.425Z,25.52
2023-04-16T17:52:43.919Z,21.60
2023-04-16T17:55:11.925Z,24.92
2023-04-16T17:57:38.818Z,26.10
2023-04-16T18:00:09.866Z,23.70
2023-04-16T18:02:39.536Z,18.58
2023-04-16T18:05:07.902Z,20.45
2023-04-16T18:07:35.628Z,23.02
2023-04-16T18:10:02.539Z,19.65
2023-04-16T18:12:29.467Z,21.60
2023-04-16T18:14:56.426Z,17.92
2023-04-16T18:17:23.499Z,18.98
2023-04-16T18:19:50.475Z,29.80
2023-04-16T18:22:17.396Z,38.25
2023-04-16T18:24:44.248Z,35.45
2023-04-16T18:27:11.911Z,29.48
2023-04-16T18:29:40.554Z,28.98
2023-04-16T18:32:11.695Z,42.80
2023-04-16T18:34:39.437Z,47.28
2023-04-16T18:37:07.068Z,44.42
2023-04-16T18:39:34.429Z,41.00
2023-04-16T18:42:01.740Z,40.33
2023-04-16T18:44:30.149Z,28.45
2023-04-16T18:46:57.178Z,24.27
2023-04-16T18:49:24.547Z,14.85
2023-04-16T18:51:51.562Z,13.02
2023-04-16T18:54:20.432Z,13.20
2023-04-16T18:56:47.633Z,13.07
2023-04-16T18:59:14.614Z,13.13
2023-04-16T19:01:41.560Z,14.73
2023-04-16T19:04:08.522Z,15.75
2023-04-16T19:06:35.769Z,18.45
2023-04-16T19:09:02.710Z,27.98
2023-04-16T19:11:29.721Z,32.53
2023-04-16T19:13:57.632Z,20.85
2023-04-16T19:16:24.677Z,15.98
2023-04-16T19:18:51.852Z,15.25
2023-04-16T19:21:18.719Z,15.82
2023-04-16T19:23:45.917Z,17.77
2023-04-16T19:26:12.784Z,21.48
2023-04-16T19:28:39.977Z,24.60
2023-04-16T19:31:06.944Z,20.40
2023-04-16T19:33:34.296Z,23.70
2023-04-16T19:36:02.503Z,22.17
2023-04-16T19:38:31.797Z,25.20
2023-04-16T19:40:58.748Z,23.48
2023-04-16T19:43:25.789Z,21.88
2023-04-16T19:45:54.297Z,22.42
2023-04-16T19:48:21.494Z,23.58
2023-04-16T19:50:48.836Z,19.38
2023-04-16T19:53:17.192Z,17.30
2023-04-16T19:55:44.259Z,17.83
2023-04-16T19:58:11.295Z,17.75
2023-04-16T20:00:41.151Z,18.77
2023-04-16T20:03:08.550Z,16.85
2023-04-16T20:05:35.645Z,17.55
2023-04-16T20:08:02.580Z,17.20
2023-04-16T20:10:31.477Z,21.15
2023-04-16T20:12:58.780Z,18.50
2023-04-16T20:15:25.862Z,17.38
2023-04-16T20:17:53.426Z,17.42
2023-04-16T20:20:23.576Z,16.02
2023-04-16T20:22:50.828Z,17.52
2023-04-16T20:25:19.293Z,15.38
2023-04-16T20:27:46.570Z,14.80
2023-04-16T20:30:14.195Z,15.05
2023-04-16T20:32:41.235Z,17.13
2023-04-16T20:35:10.975Z,15.52
2023-04-16T20:37:38.715Z,16.08
2023-04-16T20:40:10.722Z,17.80
2023-04-16T20:42:37.834Z,19.17
2023-04-16T20:45:05.680Z,15.73
2023-04-16T20:47:34.879Z,15.85
2023-04-16T20:50:02.944Z,17.48
2023-04-16T20:52:29.915Z,14.77
2023-04-16T20:54:56.846Z,17.38
2023-04-16T20:57:23.783Z,17.05
2023-04-16T20:59:51.015Z,16.20
2023-04-16T21:02:18.032Z,16.25
2023-04-16T21:04:45.219Z,17.05
2023-04-16T21:07:12.244Z,18.40
2023-04-16T21:09:39.154Z,17.60
2023-04-16T21:12:06.404Z,16.88
2023-04-16T21:14:33.350Z,15.80
2023-04-16T21:17:00.345Z,14.98
2023-04-16T21:19:27.227Z,15.68
2023-04-16T21:21:54.145Z,18.27
2023-04-16T21:24:21.082Z,17.38
2023-04-16T21:26:48.340Z,15.32
2023-04-16T21:29:15.340Z,15.93
2023-04-16T21:31:42.360Z,14.43
2023-04-16T21:34:09.282Z,14.18
2023-04-16T21:36:36.251Z,13.57
2023-04-16T21:39:03.341Z,16.95
2023-04-16T21:41:30.224Z,13.23
2023-04-16T21:43:57.104Z,11.45
2023-04-16T21:46:25.437Z,12.07
2023-04-16T21:48:52.411Z,10.80
2023-04-16T21:51:20.098Z,12.65
2023-04-16T21:53:47.004Z,10.70
2023-04-16T21:56:14.847Z,10.23
2023-04-16T21:58:41.737Z,9.85
2023-04-16T22:01:10.868Z,9.90
2023-04-16T22:03:40.494Z,9.55
2023-04-16T22:06:08.024Z,8.95
2023-04-16T22:08:34.904Z,9.48
2023-04-16T22:11:03.139Z,9.63
2023-04-16T22:13:33.924Z,9.98
2023-04-16T22:16:03.914Z,12.15
2023-04-16T22:18:33.700Z,11.43
2023-04-16T22:21:01.044Z,13.02
2023-04-16T22:23:28.046Z,12.77
2023-04-16T22:25:56.224Z,12.13
2023-04-16T22:28:23.723Z,10.95
2023-04-16T22:30:51.181Z,9.48
2023-04-16T22:33:18.267Z,6.72
2023-04-16T22:35:45.605Z,7.50
2023-04-16T22:38:12.560Z,7.05
2023-04-16T22:40:39.464Z,6.75
2023-04-16T22:43:06.373Z,8.93
2023-04-16T22:45:33.367Z,7.50
2023-04-16T22:48:00.340Z,7.50
2023-04-16T22:50:28.531Z,7.63
2023-04-16T22:52:55.543Z,8.40
2023-04-16T22:55:22.672Z,10.00
2023-04-16T22:57:49.532Z,10.68
2023-04-16T23:00:17.950Z,10.02
2023-04-16T23:02:45.293Z,11.73
2023-04-16T23:05:12.359Z,10.70
2023-04-16T23:07:39.320Z,9.07
2023-04-16T23:10:08.632Z,7.28
2023-04-16T23:12:39.211Z,7.60
2023-04-16T23:15:07.048Z,7.50
2023-04-16T23:17:35.096Z,7.60
2023-04-16T23:20:02.398Z,6.15
2023-04-16T23:22:29.472Z,8.45
2023-04-16T23:24:57.087Z,10.55
2023-04-16T23:27:24.054Z,7.70
2023-04-16T23:29:50.915Z,7.60
2023-04-16T23:32:18.002Z,8.32
2023-04-16T23:34:45.016Z,8.00
2023-04-16T23:37:11.939Z,7.95
2023-04-16T23:39:38.856Z,7.35
2023-04-16T23:42:06.042Z,6.97
2023-04-16T23:44:33.251Z,8.40
2023-04-16T23:47:00.334Z,7.40
2023-04-16T23:49:27.407Z,7.28
2023-04-16T23:51:54.306Z,6.80
2023-04-16T23:54:21.731Z,6.43
2023-04-16T23:56:48.840Z,7.40
2023-04-16T23:59:16.777Z,7.00
